sensor_id;sensor_type;location;lat;lon;timestamp;pressure;altitude;pressure_sealevel;temperature;humidity
70314;BME280;57725;47.526;18.986;2023-03-04T00:00:59;99904.09;;;6.86;97.01
70314;BME280;57725;47.526;18.986;2023-03-04T00:03:25;99903.25;;;6.86;96.97
70314;BME280;57725;47.526;18.986;2023-03-04T00:05:52;99894.59;;;6.85;96.93
70314;BME280;57725;47.526;18.986;2023-03-04T00:08:18;99906.75;;;6.85;96.75
70314;BME280;57725;47.526;18.986;2023-03-04T00:10:43;99902.44;;;6.84;96.96
70314;BME280;57725;47.526;18.986;2023-03-04T00:13:09;99902.44;;;6.84;97.16
70314;BME280;57725;47.526;18.986;2023-03-04T00:15:37;99893.78;;;6.83;96.97
70314;BME280;57725;47.526;18.986;2023-03-04T00:18:02;99907.66;;;6.82;96.82
70314;BME280;57725;47.526;18.986;2023-03-04T00:20:27;99901.63;;;6.82;96.66
70314;BME280;57725;47.526;18.986;2023-03-04T00:22:55;99894.78;;;6.79;97.07
70314;BME280;57725;47.526;18.986;2023-03-04T00:25:23;99893.03;;;6.80;97.02
70314;BME280;57725;47.526;18.986;2023-03-04T00:27:48;99879.19;;;6.79;96.71
70314;BME280;57725;47.526;18.986;2023-03-04T00:30:14;99893.06;;;6.78;96.92
70314;BME280;57725;47.526;18.986;2023-03-04T00:32:41;99883.53;;;6.79;97.11
70314;BME280;57725;47.526;18.986;2023-03-04T00:35:07;99882.69;;;6.78;96.71
70314;BME280;57725;47.526;18.986;2023-03-04T00:37:32;99890.47;;;6.78;97.13
70314;BME280;57725;47.526;18.986;2023-03-04T00:39:58;99891.38;;;6.77;97.31
70314;BME280;57725;47.526;18.986;2023-03-04T00:42:23;99894.00;;;6.76;97.21
70314;BME280;57725;47.526;18.986;2023-03-04T00:44:51;99887.09;;;6.75;97.47
70314;BME280;57725;47.526;18.986;2023-03-04T00:47:16;99885.38;;;6.74;97.23
70314;BME280;57725;47.526;18.986;2023-03-04T00:49:42;99886.28;;;6.73;97.10
70314;BME280;57725;47.526;18.986;2023-03-04T00:52:07;99883.69;;;6.73;97.06
70314;BME280;57725;47.526;18.986;2023-03-04T00:54:33;99881.09;;;6.73;96.92
70314;BME280;57725;47.526;18.986;2023-03-04T00:57:01;99887.16;;;6.72;97.09
70314;BME280;57725;47.526;18.986;2023-03-04T00:59:28;99873.31;;;6.71;97.01
70314;BME280;57725;47.526;18.986;2023-03-04T01:01:54;99869.88;;;6.71;97.09
70314;BME280;57725;47.526;18.986;2023-03-04T01:04:21;99869.88;;;6.71;96.81
70314;BME280;57725;47.526;18.986;2023-03-04T01:06:47;99863.06;;;6.67;97.00
70314;BME280;57725;47.526;18.986;2023-03-04T01:09:12;99861.31;;;6.69;96.85
70314;BME280;57725;47.526;18.986;2023-03-04T01:11:38;99858.75;;;6.67;97.14
70314;BME280;57725;47.526;18.986;2023-03-04T01:14:05;99864.78;;;6.68;97.32
70314;BME280;57725;47.526;18.986;2023-03-04T01:16:31;99862.19;;;6.68;97.38
70314;BME280;57725;47.526;18.986;2023-03-04T01:18:57;99857.88;;;6.67;97.07
70314;BME280;57725;47.526;18.986;2023-03-04T01:21:22;99854.44;;;6.66;97.48
70314;BME280;57725;47.526;18.986;2023-03-04T01:23:50;99852.75;;;6.64;97.23
70314;BME280;57725;47.526;18.986;2023-03-04T01:26:18;99848.47;;;6.63;96.98
70314;BME280;57725;47.526;18.986;2023-03-04T01:28:43;99850.16;;;6.64;97.22
70314;BME280;57725;47.526;18.986;2023-03-04T01:31:09;99846.75;;;6.62;97.17
70314;BME280;57725;47.526;18.986;2023-03-04T01:33:34;99849.34;;;6.62;96.98
70314;BME280;57725;47.526;18.986;2023-03-04T01:36:02;99851.09;;;6.61;97.18
70314;BME280;57725;47.526;18.986;2023-03-04T01:38:27;99837.34;;;6.58;97.27
70314;BME280;57725;47.526;18.986;2023-03-04T01:40:53;99846.78;;;6.60;97.13
70314;BME280;57725;47.526;18.986;2023-03-04T01:43:24;99843.34;;;6.60;97.45
70314;BME280;57725;47.526;18.986;2023-03-04T01:45:52;99841.63;;;6.59;97.09
70314;BME280;57725;47.526;18.986;2023-03-04T01:48:29;99830.50;;;6.55;97.30
70314;BME280;57725;47.526;18.986;2023-03-04T01:50:56;99830.50;;;6.55;97.10
70314;BME280;57725;47.526;18.986;2023-03-04T01:53:25;99835.66;;;6.57;97.66
70314;BME280;57725;47.526;18.986;2023-03-04T01:56:55;99827.03;;;6.54;97.38
70314;BME280;57725;47.526;18.986;2023-03-04T01:59:25;99831.34;;;6.56;97.19
70314;BME280;57725;47.526;18.986;2023-03-04T02:01:59;99822.75;;;6.53;97.17
70314;BME280;57725;47.526;18.986;2023-03-04T02:04:28;99821.03;;;6.52;97.22
70314;BME280;57725;47.526;18.986;2023-03-04T02:06:55;99818.47;;;6.51;97.23
70314;BME280;57725;47.526;18.986;2023-03-04T02:09:21;99810.72;;;6.49;97.59
70314;BME280;57725;47.526;18.986;2023-03-04T02:11:48;99816.75;;;6.50;97.49
70314;BME280;57725;47.526;18.986;2023-03-04T02:14:15;99809.00;;;6.48;97.66
70314;BME280;57725;47.526;18.986;2023-03-04T02:16:41;99808.16;;;6.48;97.68
70314;BME280;57725;47.526;18.986;2023-03-04T02:19:15;99801.25;;;6.47;97.60
70314;BME280;57725;47.526;18.986;2023-03-04T02:21:43;99802.19;;;6.46;97.80
70314;BME280;57725;47.526;18.986;2023-03-04T02:26:56;99797.88;;;6.45;97.19
70314;BME280;57725;47.526;18.986;2023-03-04T02:29:24;99802.22;;;6.44;97.33
70314;BME280;57725;47.526;18.986;2023-03-04T02:31:53;99791.88;;;6.43;97.32
70314;BME280;57725;47.526;18.986;2023-03-04T02:34:23;99784.06;;;6.43;97.29
70314;BME280;57725;47.526;18.986;2023-03-04T02:36:51;99783.22;;;6.42;97.43
70314;BME280;57725;47.526;18.986;2023-03-04T02:41:50;99783.25;;;6.41;97.49
70314;BME280;57725;47.526;18.986;2023-03-04T02:44:18;99779.81;;;6.40;97.91
70314;BME280;57725;47.526;18.986;2023-03-04T02:46:45;99778.97;;;6.40;97.60
70314;BME280;57725;47.526;18.986;2023-03-04T02:49:13;99776.41;;;6.38;97.92
70314;BME280;57725;47.526;18.986;2023-03-04T02:51:41;99766.91;;;6.37;97.84
70314;BME280;57725;47.526;18.986;2023-03-04T02:54:18;99771.25;;;6.37;97.74
70314;BME280;57725;47.526;18.986;2023-03-04T02:56:50;99770.44;;;6.35;97.59
70314;BME280;57725;47.526;18.986;2023-03-04T02:59:19;99772.13;;;6.36;97.91
70314;BME280;57725;47.526;18.986;2023-03-04T03:01:45;99772.13;;;6.36;98.02
70314;BME280;57725;47.526;18.986;2023-03-04T03:04:10;99766.19;;;6.32;97.78
70314;BME280;57725;47.526;18.986;2023-03-04T03:06:41;99772.25;;;6.33;97.91
70314;BME280;57725;47.526;18.986;2023-03-04T03:09:06;99773.09;;;6.33;98.02
70314;BME280;57725;47.526;18.986;2023-03-04T03:11:32;99763.63;;;6.31;97.61
70314;BME280;57725;47.526;18.986;2023-03-04T03:13:58;99766.22;;;6.31;97.49
70314;BME280;57725;47.526;18.986;2023-03-04T03:16:24;99761.06;;;6.29;97.54
70314;BME280;57725;47.526;18.986;2023-03-04T03:18:52;99760.19;;;6.30;97.36
70314;BME280;57725;47.526;18.986;2023-03-04T03:21:17;99755.00;;;6.30;97.42
70314;BME280;57725;47.526;18.986;2023-03-04T03:23:43;99756.78;;;6.28;98.11
70314;BME280;57725;47.526;18.986;2023-03-04T03:26:11;99751.59;;;6.28;97.79
70314;BME280;57725;47.526;18.986;2023-03-04T03:28:39;99748.13;;;6.28;97.24
70314;BME280;57725;47.526;18.986;2023-03-04T03:31:06;99750.78;;;6.26;97.57
70314;BME280;57725;47.526;18.986;2023-03-04T03:33:34;99745.56;;;6.26;97.50
70314;BME280;57725;47.526;18.986;2023-03-04T03:36:02;99750.78;;;6.26;98.04
70314;BME280;57725;47.526;18.986;2023-03-04T03:38:28;99738.81;;;6.21;97.57
70314;BME280;57725;47.526;18.986;2023-03-04T03:40:53;99743.88;;;6.25;97.60
70314;BME280;57725;47.526;18.986;2023-03-04T03:43:21;99737.97;;;6.20;98.03
70314;BME280;57725;47.526;18.986;2023-03-04T03:45:47;99734.63;;;6.15;98.32
70314;BME280;57725;47.526;18.986;2023-03-04T03:48:15;99735.34;;;6.22;97.93
70314;BME280;57725;47.526;18.986;2023-03-04T03:50:40;99742.28;;;6.21;97.78
70314;BME280;57725;47.526;18.986;2023-03-04T03:53:05;99742.28;;;6.21;97.62
70314;BME280;57725;47.526;18.986;2023-03-04T03:55:33;99740.56;;;6.20;98.03
70314;BME280;57725;47.526;18.986;2023-03-04T03:57:59;99740.59;;;6.18;97.75
70314;BME280;57725;47.526;18.986;2023-03-04T04:00:27;99739.75;;;6.18;97.75
70314;BME280;57725;47.526;18.986;2023-03-04T04:02:54;99751.03;;;6.17;98.01
70314;BME280;57725;47.526;18.986;2023-03-04T04:05:20;99749.28;;;6.17;97.75
70314;BME280;57725;47.526;18.986;2023-03-04T04:07:50;99743.22;;;6.17;98.31
70314;BME280;57725;47.526;18.986;2023-03-04T04:10:18;99747.56;;;6.16;98.04
70314;BME280;57725;47.526;18.986;2023-03-04T04:12:46;99736.38;;;6.14;98.11
70314;BME280;57725;47.526;18.986;2023-03-04T04:15:12;99748.47;;;6.15;97.75
70314;BME280;57725;47.526;18.986;2023-03-04T04:17:38;99747.63;;;6.15;98.00
70314;BME280;57725;47.526;18.986;2023-03-04T04:20:07;99743.31;;;6.14;97.73
70314;BME280;57725;47.526;18.986;2023-03-04T04:22:32;99745.06;;;6.13;97.88
70314;BME280;57725;47.526;18.986;2023-03-04T04:25:00;99739.91;;;6.12;98.06
70314;BME280;57725;47.526;18.986;2023-03-04T04:27:29;99741.72;;;6.10;97.94
70314;BME280;57725;47.526;18.986;2023-03-04T04:30:01;99745.94;;;6.12;97.70
70314;BME280;57725;47.526;18.986;2023-03-04T04:32:26;99740.75;;;6.12;98.16
70314;BME280;57725;47.526;18.986;2023-03-04T04:34:52;99739.91;;;6.12;98.00
70314;BME280;57725;47.526;18.986;2023-03-04T04:37:20;99739.06;;;6.11;97.65
70314;BME280;57725;47.526;18.986;2023-03-04T04:39:48;99736.47;;;6.11;97.72
70314;BME280;57725;47.526;18.986;2023-03-04T04:42:18;99734.78;;;6.10;97.84
70314;BME280;57725;47.526;18.986;2023-03-04T04:44:46;99733.06;;;6.09;97.81
70314;BME280;57725;47.526;18.986;2023-03-04T04:47:13;99729.63;;;6.09;98.08
70314;BME280;57725;47.526;18.986;2023-03-04T04:49:41;99733.06;;;6.09;97.28
70314;BME280;57725;47.526;18.986;2023-03-04T04:52:07;99725.31;;;6.08;98.24
70314;BME280;57725;47.526;18.986;2023-03-04T04:54:34;99730.53;;;6.06;97.60
70314;BME280;57725;47.526;18.986;2023-03-04T04:57:00;99740.88;;;6.08;97.67
70314;BME280;57725;47.526;18.986;2023-03-04T04:59:25;99734.00;;;6.07;97.91
70314;BME280;57725;47.526;18.986;2023-03-04T05:01:53;99728.81;;;6.07;97.55
70314;BME280;57725;47.526;18.986;2023-03-04T05:04:18;99733.16;;;6.06;98.03
70314;BME280;57725;47.526;18.986;2023-03-04T05:06:43;99725.44;;;6.03;97.78
70314;BME280;57725;47.526;18.986;2023-03-04T05:09:09;99726.31;;;6.02;97.96
70314;BME280;57725;47.526;18.986;2023-03-04T05:11:37;99726.28;;;6.04;98.13
70314;BME280;57725;47.526;18.986;2023-03-04T05:14:04;99721.97;;;6.03;97.59
70314;BME280;57725;47.526;18.986;2023-03-04T05:16:29;99717.69;;;6.02;97.61
70314;BME280;57725;47.526;18.986;2023-03-04T05:18:55;99725.47;;;6.02;97.87
70314;BME280;57725;47.526;18.986;2023-03-04T05:21:20;99725.47;;;6.02;97.55
70314;BME280;57725;47.526;18.986;2023-03-04T05:23:48;99722.09;;;6.00;97.43
70314;BME280;57725;47.526;18.986;2023-03-04T05:26:15;99722.09;;;6.00;98.00
70314;BME280;57725;47.526;18.986;2023-03-04T05:28:44;99733.28;;;6.00;98.30
70314;BME280;57725;47.526;18.986;2023-03-04T05:31:10;99724.72;;;5.98;98.29
70314;BME280;57725;47.526;18.986;2023-03-04T05:33:35;99718.63;;;5.99;98.29
70314;BME280;57725;47.526;18.986;2023-03-04T05:36:05;99728.16;;;5.99;98.23
70314;BME280;57725;47.526;18.986;2023-03-04T05:38:33;99728.16;;;5.99;97.76
70314;BME280;57725;47.526;18.986;2023-03-04T05:41:02;99734.25;;;5.98;97.46
70314;BME280;57725;47.526;18.986;2023-03-04T05:43:31;99726.47;;;5.98;98.40
70314;BME280;57725;47.526;18.986;2023-03-04T05:46:01;99736.00;;;5.97;97.70
70314;BME280;57725;47.526;18.986;2023-03-04T05:48:26;99733.41;;;5.97;97.97
70314;BME280;57725;47.526;18.986;2023-03-04T05:50:57;99725.66;;;5.96;98.39
70314;BME280;57725;47.526;18.986;2023-03-04T05:53:23;99736.03;;;5.96;97.67
70314;BME280;57725;47.526;18.986;2023-03-04T05:55:52;99728.31;;;5.93;97.97
70314;BME280;57725;47.526;18.986;2023-03-04T05:58:18;99730.03;;;5.94;97.77
70314;BME280;57725;47.526;18.986;2023-03-04T06:00:44;99732.56;;;5.95;98.06
70314;BME280;57725;47.526;18.986;2023-03-04T06:03:14;99731.75;;;5.93;97.94
70314;BME280;57725;47.526;18.986;2023-03-04T06:05:42;99734.38;;;5.92;98.34
70314;BME280;57725;47.526;18.986;2023-03-04T06:08:10;99741.28;;;5.93;98.10
70314;BME280;57725;47.526;18.986;2023-03-04T06:10:38;99745.63;;;5.92;98.13
70314;BME280;57725;47.526;18.986;2023-03-04T06:13:04;99752.56;;;5.92;97.76
70314;BME280;57725;47.526;18.986;2023-03-04T06:15:29;99756.00;;;5.92;97.99
70314;BME280;57725;47.526;18.986;2023-03-04T06:17:55;99760.34;;;5.92;98.12
70314;BME280;57725;47.526;18.986;2023-03-04T06:20:25;99753.44;;;5.91;98.41
70314;BME280;57725;47.526;18.986;2023-03-04T06:22:50;99754.28;;;5.91;98.27
70314;BME280;57725;47.526;18.986;2023-03-04T06:25:16;99755.16;;;5.92;98.50
70314;BME280;57725;47.526;18.986;2023-03-04T06:27:44;99764.66;;;5.91;98.19
70314;BME280;57725;47.526;18.986;2023-03-04T06:30:15;99764.66;;;5.91;98.29
70314;BME280;57725;47.526;18.986;2023-03-04T06:32:40;99769.00;;;5.91;97.86
70314;BME280;57725;47.526;18.986;2023-03-04T06:35:12;99768.16;;;5.90;98.19
70314;BME280;57725;47.526;18.986;2023-03-04T06:37:38;99760.44;;;5.87;98.05
70314;BME280;57725;47.526;18.986;2023-03-04T06:40:09;99768.16;;;5.90;98.30
70314;BME280;57725;47.526;18.986;2023-03-04T06:42:38;99768.16;;;5.90;97.92
70314;BME280;57725;47.526;18.986;2023-03-04T06:45:05;99769.91;;;5.90;98.23
70314;BME280;57725;47.526;18.986;2023-03-04T06:47:33;99765.66;;;5.86;98.02
70314;BME280;57725;47.526;18.986;2023-03-04T06:50:04;99771.63;;;5.89;98.06
70314;BME280;57725;47.526;18.986;2023-03-04T06:52:29;99770.78;;;5.89;98.29
70314;BME280;57725;47.526;18.986;2023-03-04T06:54:57;99767.31;;;5.90;98.60
70314;BME280;57725;47.526;18.986;2023-03-04T06:57:22;99768.19;;;5.89;98.28
70314;BME280;57725;47.526;18.986;2023-03-04T06:59:50;99763.00;;;5.89;98.09
70314;BME280;57725;47.526;18.986;2023-03-04T07:02:18;99765.59;;;5.89;98.50
70314;BME280;57725;47.526;18.986;2023-03-04T07:04:46;99767.31;;;5.90;98.26
70314;BME280;57725;47.526;18.986;2023-03-04T07:07:12;99764.78;;;5.88;98.63
70314;BME280;57725;47.526;18.986;2023-03-04T07:09:37;99762.19;;;5.88;98.38
70314;BME280;57725;47.526;18.986;2023-03-04T07:12:03;99756.13;;;5.86;98.43
70314;BME280;57725;47.526;18.986;2023-03-04T07:14:28;99757.81;;;5.89;98.43
70314;BME280;57725;47.526;18.986;2023-03-04T07:16:56;99763.84;;;5.89;98.54
70314;BME280;57725;47.526;18.986;2023-03-04T07:19:24;99759.59;;;5.88;98.45
70314;BME280;57725;47.526;18.986;2023-03-04T07:21:52;99757.81;;;5.89;98.35
70314;BME280;57725;47.526;18.986;2023-03-04T07:24:18;99763.84;;;5.89;98.67
70314;BME280;57725;47.526;18.986;2023-03-04T07:26:43;99764.72;;;5.90;98.33
70314;BME280;57725;47.526;18.986;2023-03-04T07:29:08;99762.19;;;5.88;98.99
70314;BME280;57725;47.526;18.986;2023-03-04T07:31:37;99762.19;;;5.88;98.63
70314;BME280;57725;47.526;18.986;2023-03-04T07:34:05;99758.66;;;5.89;99.15
70314;BME280;57725;47.526;18.986;2023-03-04T07:36:32;99762.19;;;5.88;98.87
70314;BME280;57725;47.526;18.986;2023-03-04T07:38:58;99757.00;;;5.87;98.91
70314;BME280;57725;47.526;18.986;2023-03-04T07:41:25;99763.84;;;5.89;98.79
70314;BME280;57725;47.526;18.986;2023-03-04T07:43:54;99757.81;;;5.89;98.57
70314;BME280;57725;47.526;18.986;2023-03-04T07:46:19;99757.84;;;5.87;98.49
70314;BME280;57725;47.526;18.986;2023-03-04T07:48:45;99757.78;;;5.90;98.86
70314;BME280;57725;47.526;18.986;2023-03-04T07:51:20;99752.59;;;5.90;98.96
70314;BME280;57725;47.526;18.986;2023-03-04T07:53:55;99760.38;;;5.90;98.40
70314;BME280;57725;47.526;18.986;2023-03-04T07:56:23;99751.72;;;5.90;98.65
70314;BME280;57725;47.526;18.986;2023-03-04T07:58:53;99762.97;;;5.90;98.89
70314;BME280;57725;47.526;18.986;2023-03-04T08:01:31;99757.78;;;5.90;99.16
70314;BME280;57725;47.526;18.986;2023-03-04T08:03:57;99766.41;;;5.91;98.82
70314;BME280;57725;47.526;18.986;2023-03-04T08:06:24;99758.63;;;5.91;98.82
70314;BME280;57725;47.526;18.986;2023-03-04T08:08:55;99756.91;;;5.90;98.80
70314;BME280;57725;47.526;18.986;2023-03-04T08:11:21;99760.38;;;5.90;98.92
70314;BME280;57725;47.526;18.986;2023-03-04T08:13:47;99764.78;;;5.88;98.54
70314;BME280;57725;47.526;18.986;2023-03-04T08:16:20;99760.38;;;5.90;98.50
70314;BME280;57725;47.526;18.986;2023-03-04T08:18:50;99768.16;;;5.90;98.71
70314;BME280;57725;47.526;18.986;2023-03-04T08:21:18;99763.81;;;5.91;99.24
70314;BME280;57725;47.526;18.986;2023-03-04T08:23:44;99766.41;;;5.91;98.88
70314;BME280;57725;47.526;18.986;2023-03-04T08:26:25;99779.38;;;5.91;98.54
70314;BME280;57725;47.526;18.986;2023-03-04T08:28:52;99765.53;;;5.92;98.74
70314;BME280;57725;47.526;18.986;2023-03-04T08:31:18;99763.81;;;5.91;98.71
70314;BME280;57725;47.526;18.986;2023-03-04T08:33:44;99763.81;;;5.91;98.29
70314;BME280;57725;47.526;18.986;2023-03-04T08:36:11;99769.88;;;5.91;98.23
70314;BME280;57725;47.526;18.986;2023-03-04T08:38:39;99768.19;;;5.89;98.69
70314;BME280;57725;47.526;18.986;2023-03-04T08:41:05;99769.00;;;5.91;98.93
70314;BME280;57725;47.526;18.986;2023-03-04T08:43:34;99762.06;;;5.91;98.32
70314;BME280;57725;47.526;18.986;2023-03-04T08:45:59;99758.63;;;5.91;99.03
70314;BME280;57725;47.526;18.986;2023-03-04T08:48:24;99755.16;;;5.92;98.43
70314;BME280;57725;47.526;18.986;2023-03-04T08:50:50;99751.81;;;5.88;98.92
70314;BME280;57725;47.526;18.986;2023-03-04T08:53:18;99756.91;;;5.90;98.74
70314;BME280;57725;47.526;18.986;2023-03-04T08:55:44;99751.69;;;5.91;98.89
70314;BME280;57725;47.526;18.986;2023-03-04T08:58:11;99751.69;;;5.91;98.75
70314;BME280;57725;47.526;18.986;2023-03-04T09:00:39;99743.09;;;5.89;98.97
70314;BME280;57725;47.526;18.986;2023-03-04T09:03:06;99749.06;;;5.93;98.96
70314;BME280;57725;47.526;18.986;2023-03-04T09:05:31;99737.84;;;5.92;99.08
70314;BME280;57725;47.526;18.986;2023-03-04T09:07:57;99731.81;;;5.90;98.61
70314;BME280;57725;47.526;18.986;2023-03-04T09:10:23;99733.50;;;5.93;99.19
70314;BME280;57725;47.526;18.986;2023-03-04T09:12:49;99747.31;;;5.93;98.77
70314;BME280;57725;47.526;18.986;2023-03-04T09:15:14;99734.31;;;5.95;99.03
70314;BME280;57725;47.526;18.986;2023-03-04T09:17:40;99731.72;;;5.95;98.66
70314;BME280;57725;47.526;18.986;2023-03-04T09:20:10;99730.88;;;5.94;98.73
70314;BME280;57725;47.526;18.986;2023-03-04T09:22:37;99735.16;;;5.95;98.89
70314;BME280;57725;47.526;18.986;2023-03-04T09:25:05;99731.72;;;5.95;98.93
70314;BME280;57725;47.526;18.986;2023-03-04T09:27:36;99729.97;;;5.95;98.70
70314;BME280;57725;47.526;18.986;2023-03-04T09:30:01;99723.91;;;5.96;98.80
70314;BME280;57725;47.526;18.986;2023-03-04T09:32:27;99719.59;;;5.95;99.08
70314;BME280;57725;47.526;18.986;2023-03-04T09:34:52;99731.66;;;5.98;98.85
70314;BME280;57725;47.526;18.986;2023-03-04T09:37:20;99710.19;;;5.91;99.06
70314;BME280;57725;47.526;18.986;2023-03-04T09:39:45;99718.72;;;5.96;98.52
70314;BME280;57725;47.526;18.986;2023-03-04T09:42:21;99716.13;;;5.96;99.20
70314;BME280;57725;47.526;18.986;2023-03-04T09:44:49;99711.81;;;5.95;98.67
70314;BME280;57725;47.526;18.986;2023-03-04T09:47:19;99707.47;;;5.96;98.71
70314;BME280;57725;47.526;18.986;2023-03-04T09:49:58;99706.56;;;5.98;98.56
70314;BME280;57725;47.526;18.986;2023-03-04T09:53:21;99712.59;;;5.99;98.93
70314;BME280;57725;47.526;18.986;2023-03-04T09:55:41;99701.38;;;5.98;99.12
70314;BME280;57725;47.526;18.986;2023-03-04T10:00:44;99697.88;;;5.99;99.05
70314;BME280;57725;47.526;18.986;2023-03-04T10:03:24;99704.75;;;6.00;99.11
70314;BME280;57725;47.526;18.986;2023-03-04T10:05:55;99686.56;;;6.00;99.24
70314;BME280;57725;47.526;18.986;2023-03-04T10:09:16;99689.19;;;6.00;98.68
70314;BME280;57725;47.526;18.986;2023-03-04T10:11:47;99694.38;;;6.00;98.53
70314;BME280;57725;47.526;18.986;2023-03-04T10:16:45;99689.19;;;6.00;99.20
70314;BME280;57725;47.526;18.986;2023-03-04T10:21:47;99672.81;;;5.98;98.78
70314;BME280;57725;47.526;18.986;2023-03-04T10:24:18;99681.34;;;6.02;99.28
70314;BME280;57725;47.526;18.986;2023-03-04T10:26:47;99676.16;;;6.02;99.09
70314;BME280;57725;47.526;18.986;2023-03-04T10:29:19;99677.88;;;6.03;98.97
70314;BME280;57725;47.526;18.986;2023-03-04T10:31:49;99680.47;;;6.03;98.94
70314;BME280;57725;47.526;18.986;2023-03-04T10:34:17;99678.75;;;6.02;98.96
70314;BME280;57725;47.526;18.986;2023-03-04T10:36:59;99683.03;;;6.04;98.82
70314;BME280;57725;47.526;18.986;2023-03-04T10:39:26;99668.31;;;6.05;98.69
70314;BME280;57725;47.526;18.986;2023-03-04T10:44:25;99657.88;;;6.06;98.83
70314;BME280;57725;47.526;18.986;2023-03-04T10:46:53;99650.06;;;6.08;98.97
70314;BME280;57725;47.526;18.986;2023-03-04T10:49:19;99651.78;;;6.07;99.31
70314;BME280;57725;47.526;18.986;2023-03-04T10:52:00;99649.25;;;6.06;99.02
70314;BME280;57725;47.526;18.986;2023-03-04T10:54:40;99656.13;;;6.07;99.10
70314;BME280;57725;47.526;18.986;2023-03-04T10:57:19;99642.28;;;6.08;98.61
70314;BME280;57725;47.526;18.986;2023-03-04T11:00:03;99640.53;;;6.08;98.98
70314;BME280;57725;47.526;18.986;2023-03-04T11:02:45;99635.34;;;6.08;99.19
70314;BME280;57725;47.526;18.986;2023-03-04T11:13:14;99639.59;;;6.11;98.80
70314;BME280;57725;47.526;18.986;2023-03-04T11:15:51;99640.44;;;6.11;99.16
70314;BME280;57725;47.526;18.986;2023-03-04T11:18:45;99646.47;;;6.12;99.12
70314;BME280;57725;47.526;18.986;2023-03-04T11:21:16;99636.06;;;6.12;98.72
70314;BME280;57725;47.526;18.986;2023-03-04T11:23:59;99636.06;;;6.12;99.32
70314;BME280;57725;47.526;18.986;2023-03-04T11:26:56;99629.16;;;6.12;98.70
70314;BME280;57725;47.526;18.986;2023-03-04T11:29:35;99617.88;;;6.13;98.91
70314;BME280;57725;47.526;18.986;2023-03-04T11:32:08;99631.69;;;6.14;99.44
70314;BME280;57725;47.526;18.986;2023-03-04T11:34:56;99619.63;;;6.13;98.77
70314;BME280;57725;47.526;18.986;2023-03-04T11:37:43;99618.72;;;6.14;99.05
70314;BME280;57725;47.526;18.986;2023-03-04T11:40:40;99606.59;;;6.14;99.49
70314;BME280;57725;47.526;18.986;2023-03-04T11:51:58;99601.38;;;6.16;99.45
70314;BME280;57725;47.526;18.986;2023-03-04T11:54:34;99596.13;;;6.17;99.31
70314;BME280;57725;47.526;18.986;2023-03-04T11:57:11;99594.47;;;6.15;99.44
70314;BME280;57725;47.526;18.986;2023-03-04T12:02:21;99587.50;;;6.17;99.20
70314;BME280;57725;47.526;18.986;2023-03-04T12:08:07;99580.53;;;6.19;98.96
70314;BME280;57725;47.526;18.986;2023-03-04T12:16:20;99570.94;;;6.21;99.10
70314;BME280;57725;47.526;18.986;2023-03-04T12:27:25;99549.28;;;6.22;99.30
70314;BME280;57725;47.526;18.986;2023-03-04T12:33:10;99556.09;;;6.25;99.83
70314;BME280;57725;47.526;18.986;2023-03-04T12:41:09;99537.88;;;6.26;99.53
70314;BME280;57725;47.526;18.986;2023-03-04T12:44:00;99530.97;;;6.27;99.22
70314;BME280;57725;47.526;18.986;2023-03-04T12:49:36;99530.91;;;6.28;98.85
70314;BME280;57725;47.526;18.986;2023-03-04T12:57:13;99531.72;;;6.30;99.14
70314;BME280;57725;47.526;18.986;2023-03-04T13:10:35;99508.25;;;6.33;99.10
70314;BME280;57725;47.526;18.986;2023-03-04T13:13:02;99497.88;;;6.33;99.69
70314;BME280;57725;47.526;18.986;2023-03-04T13:15:34;99482.34;;;6.32;99.20
70314;BME280;57725;47.526;18.986;2023-03-04T13:20:43;99491.78;;;6.34;99.61
70314;BME280;57725;47.526;18.986;2023-03-04T13:51:36;99436.16;;;6.41;99.10
70314;BME280;57725;47.526;18.986;2023-03-04T14:04:19;99423.19;;;6.41;99.08
70314;BME280;57725;47.526;18.986;2023-03-04T14:06:50;99423.09;;;6.44;98.74
70314;BME280;57725;47.526;18.986;2023-03-04T14:09:21;99427.38;;;6.45;99.11
70314;BME280;57725;47.526;18.986;2023-03-04T14:11:49;99422.19;;;6.45;98.67
70314;BME280;57725;47.526;18.986;2023-03-04T14:14:22;99415.34;;;6.43;98.65
70314;BME280;57725;47.526;18.986;2023-03-04T14:16:54;99411.81;;;6.45;98.91
70314;BME280;57725;47.526;18.986;2023-03-04T14:19:30;99406.53;;;6.47;98.70
70314;BME280;57725;47.526;18.986;2023-03-04T14:21:58;99415.25;;;6.46;98.58
70314;BME280;57725;47.526;18.986;2023-03-04T14:24:25;99405.75;;;6.45;98.67
70314;BME280;57725;47.526;18.986;2023-03-04T14:27:05;99407.34;;;6.49;98.86
70314;BME280;57725;47.526;18.986;2023-03-04T14:29:36;99420.31;;;6.49;98.67
70314;BME280;57725;47.526;18.986;2023-03-04T14:32:03;99405.59;;;6.49;98.27
70314;BME280;57725;47.526;18.986;2023-03-04T14:34:31;99401.41;;;6.45;98.83
70314;BME280;57725;47.526;18.986;2023-03-04T14:37:00;99417.66;;;6.50;98.51
70314;BME280;57725;47.526;18.986;2023-03-04T14:39:29;99405.53;;;6.51;98.69
70314;BME280;57725;47.526;18.986;2023-03-04T14:42:03;99403.78;;;6.51;98.47
70314;BME280;57725;47.526;18.986;2023-03-04T14:44:41;99404.63;;;6.52;98.40
70314;BME280;57725;47.526;18.986;2023-03-04T14:49:47;99408.94;;;6.53;98.20
70314;BME280;57725;47.526;18.986;2023-03-04T14:55:08;99406.28;;;6.54;98.40
70314;BME280;57725;47.526;18.986;2023-03-04T14:57:42;99418.44;;;6.54;98.53
70314;BME280;57725;47.526;18.986;2023-03-04T15:02:49;99416.69;;;6.54;98.66
70314;BME280;57725;47.526;18.986;2023-03-04T15:05:30;99415.78;;;6.56;98.27
70314;BME280;57725;47.526;18.986;2023-03-04T15:07:59;99417.50;;;6.57;98.58
70314;BME280;57725;47.526;18.986;2023-03-04T15:10:33;99414.81;;;6.58;98.55
70314;BME280;57725;47.526;18.986;2023-03-04T15:13:03;99412.22;;;6.58;98.62
70314;BME280;57725;47.526;18.986;2023-03-04T15:15:31;99414.75;;;6.60;98.55
70314;BME280;57725;47.526;18.986;2023-03-04T15:20:36;99407.94;;;6.57;98.36
70314;BME280;57725;47.526;18.986;2023-03-04T15:23:04;99388.03;;;6.58;98.77